Beauraing, Belgium
Current Conditions -  °F | °C
As of 10:25 AM on Friday 31 Oct 2014 (Local Time) from EBFS Reporting Station
Scattered Clouds Scattered Clouds  
Wind Chill: 59°   Ceiling: Unl
Heat Index: 59°   Visibility: 6mi
Dew Point: 50°   Wind: 2mph
Humidity: 72%   Direction: NA
Pressure: 30.21"   Gusts: NA
Location:  50.11°N, 4.96°E
Report Text: EBFS 310925Z VRB02KT 9999 FEW100 SCT250 15/10 Q1023 BLU BLU
Loading
Personal Weather Stations






























Interactive Weather Map
Tropical Storm Tracking
New forecast layout! Learn more

10-Day Weather Forecast

Advertisements
Track Severe Weather on mobile